sensor_id;sensor_type;location;lat;lon;timestamp;P1;durP1;ratioP1;P2;durP2;ratioP2
16828;SDS011;8531;48.078;11.968;2023-04-29T00:01:48;0.47;;;0.40;;
16828;SDS011;8531;48.078;11.968;2023-04-29T00:04:14;0.68;;;0.50;;
16828;SDS011;8531;48.078;11.968;2023-04-29T00:06:40;0.50;;;0.30;;
16828;SDS011;8531;48.078;11.968;2023-04-29T00:09:05;0.63;;;0.52;;
16828;SDS011;8531;48.078;11.968;2023-04-29T00:11:31;0.90;;;0.60;;
16828;SDS011;8531;48.078;11.968;2023-04-29T00:13:57;0.70;;;0.52;;
16828;SDS011;8531;48.078;11.968;2023-04-29T00:16:23;0.52;;;0.30;;
16828;SDS011;8531;48.078;11.968;2023-04-29T00:18:48;0.20;;;0.20;;
16828;SDS011;8531;48.078;11.968;2023-04-29T00:21:14;0.40;;;0.40;;
16828;SDS011;8531;48.078;11.968;2023-04-29T00:23:40;0.90;;;0.38;;
16828;SDS011;8531;48.078;11.968;2023-04-29T00:26:06;0.93;;;0.40;;
16828;SDS011;8531;48.078;11.968;2023-04-29T00:28:31;1.02;;;0.50;;
16828;SDS011;8531;48.078;11.968;2023-04-29T00:30:57;0.35;;;0.30;;
16828;SDS011;8531;48.078;11.968;2023-04-29T00:33:23;0.20;;;0.17;;
16828;SDS011;8531;48.078;11.968;2023-04-29T00:35:48;1.30;;;0.82;;
16828;SDS011;8531;48.078;11.968;2023-04-29T00:38:14;0.85;;;0.32;;
16828;SDS011;8531;48.078;11.968;2023-04-29T00:40:40;0.60;;;0.30;;
16828;SDS011;8531;48.078;11.968;2023-04-29T00:43:07;1.30;;;0.40;;
16828;SDS011;8531;48.078;11.968;2023-04-29T00:45:33;0.57;;;0.40;;
16828;SDS011;8531;48.078;11.968;2023-04-29T00:47:59;0.20;;;0.20;;
16828;SDS011;8531;48.078;11.968;2023-04-29T00:50:24;0.70;;;0.45;;
16828;SDS011;8531;48.078;11.968;2023-04-29T00:52:50;0.98;;;0.45;;
16828;SDS011;8531;48.078;11.968;2023-04-29T00:55:16;1.02;;;0.60;;
16828;SDS011;8531;48.078;11.968;2023-04-29T00:57:44;0.45;;;0.40;;
16828;SDS011;8531;48.078;11.968;2023-04-29T01:00:12;0.63;;;0.43;;
16828;SDS011;8531;48.078;11.968;2023-04-29T01:02:40;0.88;;;0.68;;
16828;SDS011;8531;48.078;11.968;2023-04-29T01:05:06;4.20;;;1.15;;
16828;SDS011;8531;48.078;11.968;2023-04-29T01:08:33;0.52;;;0.40;;
16828;SDS011;8531;48.078;11.968;2023-04-29T01:10:27;1.95;;;0.60;;
16828;SDS011;8531;48.078;11.968;2023-04-29T01:18:45;2.47;;;0.82;;
16828;SDS011;8531;48.078;11.968;2023-04-29T01:21:19;0.77;;;0.70;;
16828;SDS011;8531;48.078;11.968;2023-04-29T01:23:46;1.30;;;0.60;;
16828;SDS011;8531;48.078;11.968;2023-04-29T01:26:15;0.70;;;0.70;;
16828;SDS011;8531;48.078;11.968;2023-04-29T01:31:31;0.70;;;0.65;;
16828;SDS011;8531;48.078;11.968;2023-04-29T01:37:18;0.88;;;0.80;;
16828;SDS011;8531;48.078;11.968;2023-04-29T01:39:57;1.08;;;0.82;;
16828;SDS011;8531;48.078;11.968;2023-04-29T01:44:59;2.08;;;0.90;;
16828;SDS011;8531;48.078;11.968;2023-04-29T01:47:29;1.10;;;0.80;;
16828;SDS011;8531;48.078;11.968;2023-04-29T01:49:56;0.80;;;0.80;;
16828;SDS011;8531;48.078;11.968;2023-04-29T01:52:21;0.47;;;0.47;;
16828;SDS011;8531;48.078;11.968;2023-04-29T01:54:47;0.85;;;0.68;;
16828;SDS011;8531;48.078;11.968;2023-04-29T01:57:13;0.70;;;0.50;;
16828;SDS011;8531;48.078;11.968;2023-04-29T01:59:39;0.68;;;0.60;;
16828;SDS011;8531;48.078;11.968;2023-04-29T02:02:04;1.65;;;0.93;;
16828;SDS011;8531;48.078;11.968;2023-04-29T02:04:30;1.60;;;0.90;;
16828;SDS011;8531;48.078;11.968;2023-04-29T02:06:58;1.73;;;0.88;;
16828;SDS011;8531;48.078;11.968;2023-04-29T02:09:24;1.00;;;0.82;;
16828;SDS011;8531;48.078;11.968;2023-04-29T02:11:49;1.73;;;1.00;;
16828;SDS011;8531;48.078;11.968;2023-04-29T02:14:15;1.60;;;0.90;;
16828;SDS011;8531;48.078;11.968;2023-04-29T02:16:44;1.65;;;1.00;;
16828;SDS011;8531;48.078;11.968;2023-04-29T02:19:10;1.00;;;0.68;;
16828;SDS011;8531;48.078;11.968;2023-04-29T02:21:35;1.48;;;1.27;;
16828;SDS011;8531;48.078;11.968;2023-04-29T02:24:03;2.35;;;0.90;;
16828;SDS011;8531;48.078;11.968;2023-04-29T02:26:30;1.17;;;0.98;;
16828;SDS011;8531;48.078;11.968;2023-04-29T02:28:56;1.63;;;1.13;;
16828;SDS011;8531;48.078;11.968;2023-04-29T02:31:22;0.82;;;0.60;;
16828;SDS011;8531;48.078;11.968;2023-04-29T02:33:47;1.42;;;0.80;;
16828;SDS011;8531;48.078;11.968;2023-04-29T02:36:13;1.95;;;0.70;;
16828;SDS011;8531;48.078;11.968;2023-04-29T02:38:39;0.93;;;0.63;;
16828;SDS011;8531;48.078;11.968;2023-04-29T02:41:05;3.53;;;1.05;;
16828;SDS011;8531;48.078;11.968;2023-04-29T02:43:31;0.88;;;0.77;;
16828;SDS011;8531;48.078;11.968;2023-04-29T02:45:57;3.03;;;0.60;;
16828;SDS011;8531;48.078;11.968;2023-04-29T02:48:22;0.90;;;0.68;;
16828;SDS011;8531;48.078;11.968;2023-04-29T02:50:48;0.82;;;0.50;;
16828;SDS011;8531;48.078;11.968;2023-04-29T02:53:14;1.92;;;0.77;;
16828;SDS011;8531;48.078;11.968;2023-04-29T02:55:40;2.38;;;0.70;;
16828;SDS011;8531;48.078;11.968;2023-04-29T02:58:07;0.70;;;0.70;;
16828;SDS011;8531;48.078;11.968;2023-04-29T03:00:32;0.80;;;0.70;;
16828;SDS011;8531;48.078;11.968;2023-04-29T03:02:58;0.63;;;0.63;;
16828;SDS011;8531;48.078;11.968;2023-04-29T03:05:24;1.67;;;0.75;;
16828;SDS011;8531;48.078;11.968;2023-04-29T03:07:50;1.10;;;0.50;;
16828;SDS011;8531;48.078;11.968;2023-04-29T03:10:16;0.30;;;0.30;;
16828;SDS011;8531;48.078;11.968;2023-04-29T03:12:43;1.60;;;0.98;;
16828;SDS011;8531;48.078;11.968;2023-04-29T03:15:08;0.50;;;0.40;;
16828;SDS011;8531;48.078;11.968;2023-04-29T03:17:35;0.35;;;0.20;;
16828;SDS011;8531;48.078;11.968;2023-04-29T03:20:01;0.40;;;0.30;;
16828;SDS011;8531;48.078;11.968;2023-04-29T03:22:28;0.32;;;0.30;;
16828;SDS011;8531;48.078;11.968;2023-04-29T03:24:54;0.43;;;0.40;;
16828;SDS011;8531;48.078;11.968;2023-04-29T03:27:19;0.80;;;0.70;;
16828;SDS011;8531;48.078;11.968;2023-04-29T03:29:46;0.80;;;0.50;;
16828;SDS011;8531;48.078;11.968;2023-04-29T03:32:11;1.20;;;0.47;;
16828;SDS011;8531;48.078;11.968;2023-04-29T03:34:37;1.45;;;0.50;;
16828;SDS011;8531;48.078;11.968;2023-04-29T03:37:03;0.52;;;0.52;;
16828;SDS011;8531;48.078;11.968;2023-04-29T03:39:28;0.98;;;0.60;;
16828;SDS011;8531;48.078;11.968;2023-04-29T03:41:56;1.38;;;0.50;;
16828;SDS011;8531;48.078;11.968;2023-04-29T03:44:23;1.08;;;0.80;;
16828;SDS011;8531;48.078;11.968;2023-04-29T03:46:49;0.80;;;0.63;;
16828;SDS011;8531;48.078;11.968;2023-04-29T03:49:15;1.17;;;1.08;;
16828;SDS011;8531;48.078;11.968;2023-04-29T03:51:41;4.22;;;3.35;;
16828;SDS011;8531;48.078;11.968;2023-04-29T03:54:09;4.55;;;2.58;;
16828;SDS011;8531;48.078;11.968;2023-04-29T03:56:35;3.42;;;2.35;;
16828;SDS011;8531;48.078;11.968;2023-04-29T03:59:01;2.28;;;2.08;;
16828;SDS011;8531;48.078;11.968;2023-04-29T04:01:26;4.90;;;2.85;;
16828;SDS011;8531;48.078;11.968;2023-04-29T04:03:52;2.25;;;1.70;;
16828;SDS011;8531;48.078;11.968;2023-04-29T04:06:18;2.70;;;1.92;;
16828;SDS011;8531;48.078;11.968;2023-04-29T04:08:44;1.85;;;1.65;;
16828;SDS011;8531;48.078;11.968;2023-04-29T04:11:09;2.38;;;1.88;;
16828;SDS011;8531;48.078;11.968;2023-04-29T04:13:37;1.70;;;1.05;;
16828;SDS011;8531;48.078;11.968;2023-04-29T04:16:02;2.97;;;0.80;;
16828;SDS011;8531;48.078;11.968;2023-04-29T04:18:28;0.70;;;0.70;;
16828;SDS011;8531;48.078;11.968;2023-04-29T04:20:54;1.15;;;0.70;;
16828;SDS011;8531;48.078;11.968;2023-04-29T04:23:20;1.50;;;1.00;;
16828;SDS011;8531;48.078;11.968;2023-04-29T04:25:48;0.90;;;0.70;;
16828;SDS011;8531;48.078;11.968;2023-04-29T04:28:14;0.88;;;0.50;;
16828;SDS011;8531;48.078;11.968;2023-04-29T04:30:40;1.58;;;0.52;;
16828;SDS011;8531;48.078;11.968;2023-04-29T04:33:07;0.70;;;0.60;;
16828;SDS011;8531;48.078;11.968;2023-04-29T04:35:32;0.88;;;0.60;;
16828;SDS011;8531;48.078;11.968;2023-04-29T04:37:58;0.93;;;0.65;;
16828;SDS011;8531;48.078;11.968;2023-04-29T04:40:24;1.10;;;0.82;;
16828;SDS011;8531;48.078;11.968;2023-04-29T04:42:50;1.38;;;0.50;;
16828;SDS011;8531;48.078;11.968;2023-04-29T04:45:15;0.77;;;0.60;;
16828;SDS011;8531;48.078;11.968;2023-04-29T04:47:41;0.63;;;0.60;;
16828;SDS011;8531;48.078;11.968;2023-04-29T04:50:07;1.05;;;0.57;;
16828;SDS011;8531;48.078;11.968;2023-04-29T04:52:33;0.70;;;0.57;;
16828;SDS011;8531;48.078;11.968;2023-04-29T04:54:59;0.57;;;0.57;;
16828;SDS011;8531;48.078;11.968;2023-04-29T04:57:25;1.33;;;0.95;;
16828;SDS011;8531;48.078;11.968;2023-04-29T04:59:50;0.50;;;0.50;;
16828;SDS011;8531;48.078;11.968;2023-04-29T05:02:16;0.82;;;0.70;;
16828;SDS011;8531;48.078;11.968;2023-04-29T05:04:42;1.02;;;0.60;;
16828;SDS011;8531;48.078;11.968;2023-04-29T05:07:08;0.82;;;0.70;;
16828;SDS011;8531;48.078;11.968;2023-04-29T05:09:34;1.75;;;0.85;;
16828;SDS011;8531;48.078;11.968;2023-04-29T05:12:00;2.25;;;0.88;;
16828;SDS011;8531;48.078;11.968;2023-04-29T05:14:26;1.17;;;0.50;;
16828;SDS011;8531;48.078;11.968;2023-04-29T05:16:52;1.13;;;0.70;;
16828;SDS011;8531;48.078;11.968;2023-04-29T05:19:22;0.85;;;0.80;;
16828;SDS011;8531;48.078;11.968;2023-04-29T05:21:47;1.35;;;0.80;;
16828;SDS011;8531;48.078;11.968;2023-04-29T05:24:13;1.00;;;0.90;;
16828;SDS011;8531;48.078;11.968;2023-04-29T05:26:39;2.47;;;0.75;;
16828;SDS011;8531;48.078;11.968;2023-04-29T05:29:07;2.22;;;0.90;;
16828;SDS011;8531;48.078;11.968;2023-04-29T05:31:33;0.88;;;0.82;;
16828;SDS011;8531;48.078;11.968;2023-04-29T05:33:58;1.25;;;1.10;;
16828;SDS011;8531;48.078;11.968;2023-04-29T05:36:24;1.02;;;0.80;;
16828;SDS011;8531;48.078;11.968;2023-04-29T05:38:51;0.93;;;0.80;;
16828;SDS011;8531;48.078;11.968;2023-04-29T05:41:17;0.90;;;0.90;;
16828;SDS011;8531;48.078;11.968;2023-04-29T05:43:43;1.90;;;0.80;;
16828;SDS011;8531;48.078;11.968;2023-04-29T05:46:08;0.68;;;0.68;;
16828;SDS011;8531;48.078;11.968;2023-04-29T05:48:34;3.10;;;0.90;;
16828;SDS011;8531;48.078;11.968;2023-04-29T05:51:00;1.23;;;0.95;;
16828;SDS011;8531;48.078;11.968;2023-04-29T05:53:26;1.52;;;1.02;;
16828;SDS011;8531;48.078;11.968;2023-04-29T05:55:52;1.40;;;0.85;;
16828;SDS011;8531;48.078;11.968;2023-04-29T05:58:17;1.70;;;1.10;;
16828;SDS011;8531;48.078;11.968;2023-04-29T06:00:43;1.17;;;1.00;;
16828;SDS011;8531;48.078;11.968;2023-04-29T06:03:09;1.33;;;1.17;;
16828;SDS011;8531;48.078;11.968;2023-04-29T06:05:36;1.92;;;1.08;;
16828;SDS011;8531;48.078;11.968;2023-04-29T06:08:01;1.63;;;1.13;;
16828;SDS011;8531;48.078;11.968;2023-04-29T06:10:28;1.55;;;1.00;;
16828;SDS011;8531;48.078;11.968;2023-04-29T06:12:54;1.08;;;0.98;;
16828;SDS011;8531;48.078;11.968;2023-04-29T06:15:20;1.42;;;1.00;;
16828;SDS011;8531;48.078;11.968;2023-04-29T06:17:46;2.47;;;1.15;;
16828;SDS011;8531;48.078;11.968;2023-04-29T06:20:12;3.05;;;1.17;;
16828;SDS011;8531;48.078;11.968;2023-04-29T06:22:38;2.00;;;1.00;;
16828;SDS011;8531;48.078;11.968;2023-04-29T06:25:04;1.27;;;1.10;;
16828;SDS011;8531;48.078;11.968;2023-04-29T06:27:30;1.58;;;1.40;;
16828;SDS011;8531;48.078;11.968;2023-04-29T06:29:56;1.20;;;1.10;;
16828;SDS011;8531;48.078;11.968;2023-04-29T06:32:22;1.25;;;1.15;;
16828;SDS011;8531;48.078;11.968;2023-04-29T06:34:47;0.93;;;0.77;;
16828;SDS011;8531;48.078;11.968;2023-04-29T06:37:14;5.38;;;1.35;;
16828;SDS011;8531;48.078;11.968;2023-04-29T06:39:39;1.77;;;1.15;;
16828;SDS011;8531;48.078;11.968;2023-04-29T06:42:05;3.15;;;1.42;;
16828;SDS011;8531;48.078;11.968;2023-04-29T06:44:31;1.70;;;1.17;;
16828;SDS011;8531;48.078;11.968;2023-04-29T06:46:57;2.15;;;1.15;;
16828;SDS011;8531;48.078;11.968;2023-04-29T06:49:22;1.17;;;1.00;;
16828;SDS011;8531;48.078;11.968;2023-04-29T06:51:48;1.77;;;1.15;;
16828;SDS011;8531;48.078;11.968;2023-04-29T06:54:14;2.05;;;1.08;;
16828;SDS011;8531;48.078;11.968;2023-04-29T06:56:39;1.63;;;1.13;;
16828;SDS011;8531;48.078;11.968;2023-04-29T06:59:05;1.85;;;1.10;;
16828;SDS011;8531;48.078;11.968;2023-04-29T07:01:31;2.97;;;1.48;;
16828;SDS011;8531;48.078;11.968;2023-04-29T07:03:57;1.35;;;1.25;;
16828;SDS011;8531;48.078;11.968;2023-04-29T07:06:23;1.33;;;1.23;;
16828;SDS011;8531;48.078;11.968;2023-04-29T07:08:48;1.45;;;1.30;;
16828;SDS011;8531;48.078;11.968;2023-04-29T07:11:14;2.25;;;1.40;;
16828;SDS011;8531;48.078;11.968;2023-04-29T07:13:40;2.45;;;1.50;;
16828;SDS011;8531;48.078;11.968;2023-04-29T07:16:13;5.25;;;1.30;;
16828;SDS011;8531;48.078;11.968;2023-04-29T07:18:40;1.30;;;1.10;;
16828;SDS011;8531;48.078;11.968;2023-04-29T07:21:06;2.00;;;1.50;;
16828;SDS011;8531;48.078;11.968;2023-04-29T07:23:32;1.75;;;1.40;;
16828;SDS011;8531;48.078;11.968;2023-04-29T07:25:58;1.67;;;1.48;;
16828;SDS011;8531;48.078;11.968;2023-04-29T07:28:23;1.90;;;1.52;;
16828;SDS011;8531;48.078;11.968;2023-04-29T07:30:49;4.38;;;1.90;;
16828;SDS011;8531;48.078;11.968;2023-04-29T07:33:15;2.00;;;1.80;;
16828;SDS011;8531;48.078;11.968;2023-04-29T07:35:41;4.68;;;1.75;;
16828;SDS011;8531;48.078;11.968;2023-04-29T07:38:08;2.20;;;1.30;;
16828;SDS011;8531;48.078;11.968;2023-04-29T07:40:34;2.85;;;1.35;;
16828;SDS011;8531;48.078;11.968;2023-04-29T07:42:59;3.85;;;1.50;;
16828;SDS011;8531;48.078;11.968;2023-04-29T07:45:29;8.52;;;2.22;;
16828;SDS011;8531;48.078;11.968;2023-04-29T07:47:54;2.65;;;1.77;;
16828;SDS011;8531;48.078;11.968;2023-04-29T07:50:20;1.98;;;1.77;;
16828;SDS011;8531;48.078;11.968;2023-04-29T07:52:46;2.20;;;1.50;;
16828;SDS011;8531;48.078;11.968;2023-04-29T07:55:12;2.42;;;1.40;;
16828;SDS011;8531;48.078;11.968;2023-04-29T07:57:37;2.13;;;1.42;;
16828;SDS011;8531;48.078;11.968;2023-04-29T08:00:04;1.80;;;1.50;;
16828;SDS011;8531;48.078;11.968;2023-04-29T08:02:31;2.53;;;1.40;;
16828;SDS011;8531;48.078;11.968;2023-04-29T08:04:56;1.55;;;1.38;;
16828;SDS011;8531;48.078;11.968;2023-04-29T08:07:22;4.25;;;1.48;;
16828;SDS011;8531;48.078;11.968;2023-04-29T08:09:48;2.08;;;1.52;;
16828;SDS011;8531;48.078;11.968;2023-04-29T08:12:13;1.80;;;1.52;;
16828;SDS011;8531;48.078;11.968;2023-04-29T08:14:39;2.53;;;1.27;;
16828;SDS011;8531;48.078;11.968;2023-04-29T08:17:05;6.85;;;1.90;;
16828;SDS011;8531;48.078;11.968;2023-04-29T08:19:31;2.10;;;1.83;;
16828;SDS011;8531;48.078;11.968;2023-04-29T08:21:57;2.30;;;1.55;;
16828;SDS011;8531;48.078;11.968;2023-04-29T08:24:23;2.00;;;1.80;;
16828;SDS011;8531;48.078;11.968;2023-04-29T08:26:49;2.20;;;1.80;;
16828;SDS011;8531;48.078;11.968;2023-04-29T08:29:15;1.88;;;1.73;;
16828;SDS011;8531;48.078;11.968;2023-04-29T08:31:40;2.38;;;1.58;;
16828;SDS011;8531;48.078;11.968;2023-04-29T08:34:06;2.67;;;1.88;;
16828;SDS011;8531;48.078;11.968;2023-04-29T08:36:32;2.13;;;1.63;;
16828;SDS011;8531;48.078;11.968;2023-04-29T08:38:58;2.13;;;1.80;;
16828;SDS011;8531;48.078;11.968;2023-04-29T08:41:24;1.65;;;1.55;;
16828;SDS011;8531;48.078;11.968;2023-04-29T08:43:50;1.70;;;1.55;;
16828;SDS011;8531;48.078;11.968;2023-04-29T08:46:15;3.40;;;1.40;;
16828;SDS011;8531;48.078;11.968;2023-04-29T08:48:42;1.65;;;1.50;;
16828;SDS011;8531;48.078;11.968;2023-04-29T08:51:10;2.22;;;1.40;;
16828;SDS011;8531;48.078;11.968;2023-04-29T08:53:36;1.95;;;1.60;;
16828;SDS011;8531;48.078;11.968;2023-04-29T08:56:03;1.98;;;1.70;;
16828;SDS011;8531;48.078;11.968;2023-04-29T08:58:42;1.40;;;1.30;;
16828;SDS011;8531;48.078;11.968;2023-04-29T09:01:08;1.65;;;1.38;;
16828;SDS011;8531;48.078;11.968;2023-04-29T09:03:53;2.15;;;1.85;;
16828;SDS011;8531;48.078;11.968;2023-04-29T09:06:29;1.98;;;1.42;;
16828;SDS011;8531;48.078;11.968;2023-04-29T09:08:57;1.63;;;1.27;;
16828;SDS011;8531;48.078;11.968;2023-04-29T09:11:25;1.60;;;1.25;;
16828;SDS011;8531;48.078;11.968;2023-04-29T09:13:54;2.22;;;1.45;;
16828;SDS011;8531;48.078;11.968;2023-04-29T09:16:24;3.17;;;1.30;;
16828;SDS011;8531;48.078;11.968;2023-04-29T09:18:50;1.10;;;0.90;;
16828;SDS011;8531;48.078;11.968;2023-04-29T09:21:17;4.05;;;1.67;;
16828;SDS011;8531;48.078;11.968;2023-04-29T09:23:48;1.15;;;0.98;;
16828;SDS011;8531;48.078;11.968;2023-04-29T09:26:15;1.75;;;1.13;;
16828;SDS011;8531;48.078;11.968;2023-04-29T09:28:41;1.83;;;1.35;;
16828;SDS011;8531;48.078;11.968;2023-04-29T09:31:10;1.52;;;1.38;;
16828;SDS011;8531;48.078;11.968;2023-04-29T09:33:52;1.75;;;1.30;;
16828;SDS011;8531;48.078;11.968;2023-04-29T09:39:15;1.30;;;1.20;;
16828;SDS011;8531;48.078;11.968;2023-04-29T09:44:20;2.67;;;1.30;;
16828;SDS011;8531;48.078;11.968;2023-04-29T09:47:06;1.77;;;1.08;;
16828;SDS011;8531;48.078;11.968;2023-04-29T09:49:34;1.30;;;1.00;;
16828;SDS011;8531;48.078;11.968;2023-04-29T09:52:04;1.27;;;0.95;;
16828;SDS011;8531;48.078;11.968;2023-04-29T09:54:33;1.20;;;1.10;;
16828;SDS011;8531;48.078;11.968;2023-04-29T09:57:00;1.30;;;1.05;;
16828;SDS011;8531;48.078;11.968;2023-04-29T09:59:30;1.05;;;0.70;;
16828;SDS011;8531;48.078;11.968;2023-04-29T10:01:56;1.83;;;1.30;;
16828;SDS011;8531;48.078;11.968;2023-04-29T10:04:24;3.22;;;0.95;;
16828;SDS011;8531;48.078;11.968;2023-04-29T10:06:53;6.75;;;3.83;;
16828;SDS011;8531;48.078;11.968;2023-04-29T10:09:20;4.30;;;1.30;;
16828;SDS011;8531;48.078;11.968;2023-04-29T10:11:48;1.17;;;0.95;;
16828;SDS011;8531;48.078;11.968;2023-04-29T10:14:16;2.45;;;0.88;;
16828;SDS011;8531;48.078;11.968;2023-04-29T10:19:14;1.73;;;0.90;;
16828;SDS011;8531;48.078;11.968;2023-04-29T10:21:47;2.40;;;0.88;;
16828;SDS011;8531;48.078;11.968;2023-04-29T10:24:16;1.77;;;1.10;;
16828;SDS011;8531;48.078;11.968;2023-04-29T10:26:47;1.00;;;0.82;;
16828;SDS011;8531;48.078;11.968;2023-04-29T10:29:17;1.48;;;1.10;;
16828;SDS011;8531;48.078;11.968;2023-04-29T10:31:47;1.35;;;0.80;;
16828;SDS011;8531;48.078;11.968;2023-04-29T10:34:15;1.27;;;0.68;;
16828;SDS011;8531;48.078;11.968;2023-04-29T10:36:41;1.25;;;0.70;;
16828;SDS011;8531;48.078;11.968;2023-04-29T10:39:10;0.70;;;0.60;;
16828;SDS011;8531;48.078;11.968;2023-04-29T10:41:44;1.80;;;0.50;;
16828;SDS011;8531;48.078;11.968;2023-04-29T10:44:11;0.60;;;0.60;;
16828;SDS011;8531;48.078;11.968;2023-04-29T10:46:37;1.80;;;0.60;;
16828;SDS011;8531;48.078;11.968;2023-04-29T10:49:04;1.10;;;0.60;;
16828;SDS011;8531;48.078;11.968;2023-04-29T10:51:34;2.08;;;0.40;;
16828;SDS011;8531;48.078;11.968;2023-04-29T10:54:09;0.60;;;0.60;;
16828;SDS011;8531;48.078;11.968;2023-04-29T10:56:38;1.67;;;0.93;;
16828;SDS011;8531;48.078;11.968;2023-04-29T10:59:05;1.55;;;1.05;;
16828;SDS011;8531;48.078;11.968;2023-04-29T11:04:10;1.77;;;1.13;;
16828;SDS011;8531;48.078;11.968;2023-04-29T11:09:11;1.50;;;1.23;;
16828;SDS011;8531;48.078;11.968;2023-04-29T11:14:25;1.65;;;1.20;;
16828;SDS011;8531;48.078;11.968;2023-04-29T11:17:05;2.42;;;1.10;;
16828;SDS011;8531;48.078;11.968;2023-04-29T11:19:43;1.35;;;0.93;;
16828;SDS011;8531;48.078;11.968;2023-04-29T11:25:06;1.58;;;1.08;;
16828;SDS011;8531;48.078;11.968;2023-04-29T11:27:34;2.95;;;1.40;;
16828;SDS011;8531;48.078;11.968;2023-04-29T11:30:02;1.70;;;1.00;;
16828;SDS011;8531;48.078;11.968;2023-04-29T11:32:31;1.60;;;0.80;;
16828;SDS011;8531;48.078;11.968;2023-04-29T11:35:08;1.02;;;0.90;;
16828;SDS011;8531;48.078;11.968;2023-04-29T11:37:41;1.30;;;1.13;;
16828;SDS011;8531;48.078;11.968;2023-04-29T11:40:09;2.25;;;1.25;;
16828;SDS011;8531;48.078;11.968;2023-04-29T11:42:42;2.33;;;1.00;;
16828;SDS011;8531;48.078;11.968;2023-04-29T11:45:09;1.65;;;0.90;;
16828;SDS011;8531;48.078;11.968;2023-04-29T11:47:36;2.55;;;1.10;;
16828;SDS011;8531;48.078;11.968;2023-04-29T11:50:07;1.20;;;1.00;;
16828;SDS011;8531;48.078;11.968;2023-04-29T11:52:34;2.00;;;1.27;;
16828;SDS011;8531;48.078;11.968;2023-04-29T11:55:01;0.98;;;0.82;;
16828;SDS011;8531;48.078;11.968;2023-04-29T11:57:30;1.60;;;1.02;;
16828;SDS011;8531;48.078;11.968;2023-04-29T11:59:56;1.10;;;1.00;;
16828;SDS011;8531;48.078;11.968;2023-04-29T12:02:29;3.13;;;0.85;;
16828;SDS011;8531;48.078;11.968;2023-04-29T12:04:56;3.85;;;0.90;;
16828;SDS011;8531;48.078;11.968;2023-04-29T12:07:22;1.65;;;0.90;;
16828;SDS011;8531;48.078;11.968;2023-04-29T12:09:48;1.85;;;0.98;;
16828;SDS011;8531;48.078;11.968;2023-04-29T12:12:14;2.90;;;0.50;;
16828;SDS011;8531;48.078;11.968;2023-04-29T12:14:40;2.08;;;0.77;;
16828;SDS011;8531;48.078;11.968;2023-04-29T12:17:07;1.58;;;0.43;;
16828;SDS011;8531;48.078;11.968;2023-04-29T12:19:34;0.63;;;0.60;;
16828;SDS011;8531;48.078;11.968;2023-04-29T12:22:03;1.33;;;0.60;;
16828;SDS011;8531;48.078;11.968;2023-04-29T12:24:33;1.02;;;0.70;;
16828;SDS011;8531;48.078;11.968;2023-04-29T12:27:01;0.88;;;0.68;;
16828;SDS011;8531;48.078;11.968;2023-04-29T12:29:26;1.45;;;0.40;;
16828;SDS011;8531;48.078;11.968;2023-04-29T12:31:52;1.48;;;0.70;;
16828;SDS011;8531;48.078;11.968;2023-04-29T12:34:29;1.65;;;0.57;;
16828;SDS011;8531;48.078;11.968;2023-04-29T12:36:59;1.55;;;0.40;;
16828;SDS011;8531;48.078;11.968;2023-04-29T12:39:29;1.63;;;0.52;;
16828;SDS011;8531;48.078;11.968;2023-04-29T12:41:58;0.63;;;0.43;;
16828;SDS011;8531;48.078;11.968;2023-04-29T12:44:25;1.48;;;0.85;;
16828;SDS011;8531;48.078;11.968;2023-04-29T12:47:05;0.43;;;0.43;;
16828;SDS011;8531;48.078;11.968;2023-04-29T12:49:33;0.57;;;0.50;;
16828;SDS011;8531;48.078;11.968;2023-04-29T12:51:58;0.98;;;0.70;;
16828;SDS011;8531;48.078;11.968;2023-04-29T12:54:24;0.45;;;0.45;;
16828;SDS011;8531;48.078;11.968;2023-04-29T12:56:50;1.48;;;0.60;;
16828;SDS011;8531;48.078;11.968;2023-04-29T12:59:16;1.17;;;0.50;;
16828;SDS011;8531;48.078;11.968;2023-04-29T13:01:41;1.25;;;0.60;;
16828;SDS011;8531;48.078;11.968;2023-04-29T13:04:07;0.57;;;0.50;;
16828;SDS011;8531;48.078;11.968;2023-04-29T13:06:35;0.40;;;0.40;;
16828;SDS011;8531;48.078;11.968;2023-04-29T13:09:04;4.00;;;0.70;;
16828;SDS011;8531;48.078;11.968;2023-04-29T13:11:30;1.50;;;0.50;;
16828;SDS011;8531;48.078;11.968;2023-04-29T13:13:56;0.98;;;0.50;;
16828;SDS011;8531;48.078;11.968;2023-04-29T13:16:22;0.85;;;0.70;;
16828;SDS011;8531;48.078;11.968;2023-04-29T13:18:48;1.10;;;0.60;;
16828;SDS011;8531;48.078;11.968;2023-04-29T13:21:14;1.88;;;0.50;;
16828;SDS011;8531;48.078;11.968;2023-04-29T13:23:40;0.85;;;0.60;;
16828;SDS011;8531;48.078;11.968;2023-04-29T13:26:06;1.73;;;0.50;;
16828;SDS011;8531;48.078;11.968;2023-04-29T13:28:33;0.80;;;0.80;;
16828;SDS011;8531;48.078;11.968;2023-04-29T13:30:59;0.65;;;0.50;;
16828;SDS011;8531;48.078;11.968;2023-04-29T13:33:24;2.65;;;0.50;;
16828;SDS011;8531;48.078;11.968;2023-04-29T13:35:50;1.40;;;0.77;;
16828;SDS011;8531;48.078;11.968;2023-04-29T13:38:16;2.08;;;0.50;;
16828;SDS011;8531;48.078;11.968;2023-04-29T13:40:42;1.10;;;0.65;;
16828;SDS011;8531;48.078;11.968;2023-04-29T13:43:08;1.98;;;0.47;;
16828;SDS011;8531;48.078;11.968;2023-04-29T13:45:33;0.98;;;0.40;;
16828;SDS011;8531;48.078;11.968;2023-04-29T13:48:02;0.95;;;0.85;;
16828;SDS011;8531;48.078;11.968;2023-04-29T13:50:28;0.80;;;0.70;;
16828;SDS011;8531;48.078;11.968;2023-04-29T13:52:53;1.08;;;0.40;;
16828;SDS011;8531;48.078;11.968;2023-04-29T13:55:20;1.15;;;0.38;;
16828;SDS011;8531;48.078;11.968;2023-04-29T13:57:46;1.58;;;0.30;;
16828;SDS011;8531;48.078;11.968;2023-04-29T14:00:12;0.70;;;0.40;;
16828;SDS011;8531;48.078;11.968;2023-04-29T14:02:38;0.25;;;0.25;;
16828;SDS011;8531;48.078;11.968;2023-04-29T14:05:04;2.00;;;0.25;;
16828;SDS011;8531;48.078;11.968;2023-04-29T14:07:30;0.43;;;0.25;;
16828;SDS011;8531;48.078;11.968;2023-04-29T14:09:56;0.90;;;0.50;;
16828;SDS011;8531;48.078;11.968;2023-04-29T14:12:22;0.70;;;0.40;;
16828;SDS011;8531;48.078;11.968;2023-04-29T14:14:47;0.75;;;0.50;;
16828;SDS011;8531;48.078;11.968;2023-04-29T14:17:13;0.60;;;0.30;;
16828;SDS011;8531;48.078;11.968;2023-04-29T14:19:38;1.65;;;0.60;;
16828;SDS011;8531;48.078;11.968;2023-04-29T14:22:04;0.85;;;0.80;;
16828;SDS011;8531;48.078;11.968;2023-04-29T14:24:30;0.90;;;0.90;;
16828;SDS011;8531;48.078;11.968;2023-04-29T14:26:56;0.50;;;0.30;;
16828;SDS011;8531;48.078;11.968;2023-04-29T14:29:21;0.77;;;0.35;;
16828;SDS011;8531;48.078;11.968;2023-04-29T14:31:47;0.30;;;0.20;;
16828;SDS011;8531;48.078;11.968;2023-04-29T14:34:13;0.25;;;0.20;;
16828;SDS011;8531;48.078;11.968;2023-04-29T14:36:38;0.50;;;0.22;;
16828;SDS011;8531;48.078;11.968;2023-04-29T14:39:05;0.30;;;0.30;;
16828;SDS011;8531;48.078;11.968;2023-04-29T14:41:30;0.70;;;0.47;;
16828;SDS011;8531;48.078;11.968;2023-04-29T14:43:56;0.90;;;0.60;;
16828;SDS011;8531;48.078;11.968;2023-04-29T14:46:22;0.60;;;0.50;;
16828;SDS011;8531;48.078;11.968;2023-04-29T14:48:49;0.55;;;0.40;;
16828;SDS011;8531;48.078;11.968;2023-04-29T14:51:14;3.55;;;0.50;;
16828;SDS011;8531;48.078;11.968;2023-04-29T14:53:40;0.52;;;0.40;;
16828;SDS011;8531;48.078;11.968;2023-04-29T14:56:06;0.47;;;0.40;;
16828;SDS011;8531;48.078;11.968;2023-04-29T14:58:32;0.65;;;0.40;;
16828;SDS011;8531;48.078;11.968;2023-04-29T15:00:58;0.38;;;0.30;;
16828;SDS011;8531;48.078;11.968;2023-04-29T15:03:24;3.10;;;0.40;;
16828;SDS011;8531;48.078;11.968;2023-04-29T15:05:50;0.60;;;0.35;;
16828;SDS011;8531;48.078;11.968;2023-04-29T15:08:16;0.30;;;0.28;;
16828;SDS011;8531;48.078;11.968;2023-04-29T15:10:43;0.20;;;0.20;;
16828;SDS011;8531;48.078;11.968;2023-04-29T15:13:13;1.15;;;0.40;;
16828;SDS011;8531;48.078;11.968;2023-04-29T15:15:39;1.60;;;0.40;;
16828;SDS011;8531;48.078;11.968;2023-04-29T15:18:05;0.60;;;0.30;;
16828;SDS011;8531;48.078;11.968;2023-04-29T15:20:33;0.52;;;0.30;;